createdAt,value
2018-09-12T00:00:01.178Z,98.30
2018-09-12T00:02:29.350Z,98.50
2018-09-12T00:04:57.594Z,98.60
2018-09-12T00:07:25.732Z,98.70
2018-09-12T00:09:53.915Z,98.80
2018-09-12T00:12:22.122Z,98.90
2018-09-12T00:14:50.285Z,98.90
2018-09-12T00:17:18.482Z,99.00
2018-09-12T00:19:46.695Z,99.00
2018-09-12T00:22:14.846Z,99.00
2018-09-12T00:24:43.040Z,98.90
2018-09-12T00:27:11.222Z,98.90
2018-09-12T00:29:39.398Z,98.80
2018-09-12T00:32:07.512Z,98.90
2018-09-12T00:34:35.682Z,98.90
2018-09-12T00:37:03.870Z,99.10
2018-09-12T00:39:32.165Z,99.00
2018-09-12T00:42:00.243Z,99.10
2018-09-12T00:44:28.430Z,99.10
2018-09-12T00:46:56.642Z,99.30
2018-09-12T00:49:24.795Z,99.30
2018-09-12T00:51:52.890Z,99.20
2018-09-12T00:54:21.094Z,99.20
2018-09-12T00:56:49.270Z,99.40
2018-09-12T00:59:17.446Z,99.50
2018-09-12T01:01:47.659Z,99.50
2018-09-12T01:04:15.778Z,99.40
2018-09-12T01:06:43.963Z,99.40
2018-09-12T01:09:12.143Z,99.40
2018-09-12T01:11:40.346Z,99.40
2018-09-12T01:14:08.518Z,99.40
2018-09-12T01:16:36.698Z,99.30
2018-09-12T01:19:04.894Z,99.30
2018-09-12T01:21:33.090Z,99.40
2018-09-12T01:24:01.263Z,99.60
2018-09-12T01:26:29.458Z,99.80
2018-09-12T01:28:57.634Z,99.90
2018-09-12T01:31:25.826Z,99.90
2018-09-12T01:33:54.001Z,99.90
2018-09-12T01:36:22.094Z,99.90
2018-09-12T01:38:50.281Z,99.90
2018-09-12T01:41:18.470Z,99.90
2018-09-12T01:43:46.662Z,99.90
2018-09-12T01:46:14.870Z,99.90
2018-09-12T01:48:43.034Z,99.90
2018-09-12T01:51:12.142Z,99.90
2018-09-12T01:53:40.318Z,99.90
2018-09-12T01:56:08.530Z,99.90
2018-09-12T01:58:37.630Z,99.90
2018-09-12T02:01:06.742Z,99.90
2018-09-12T02:03:34.927Z,99.90
2018-09-12T02:06:03.110Z,99.90
2018-09-12T02:08:31.301Z,99.90
2018-09-12T02:10:59.510Z,99.90
2018-09-12T02:13:27.670Z,99.90
2018-09-12T02:15:55.865Z,99.90
2018-09-12T02:18:24.040Z,99.90
2018-09-12T02:20:52.225Z,99.90
2018-09-12T02:23:20.418Z,99.90
2018-09-12T02:25:48.616Z,99.90
2018-09-12T02:28:16.801Z,99.90
2018-09-12T02:30:44.986Z,99.90
2018-09-12T02:33:13.186Z,99.90
2018-09-12T02:35:46.774Z,99.90
2018-09-12T02:38:14.978Z,99.90
2018-09-12T02:40:43.166Z,99.90
2018-09-12T02:43:11.362Z,99.90
2018-09-12T02:45:39.453Z,99.90
2018-09-12T02:48:07.626Z,99.90
2018-09-12T02:50:35.802Z,99.90
2018-09-12T02:53:04.003Z,99.90
2018-09-12T02:55:32.202Z,99.90
2018-09-12T02:58:00.378Z,99.90
2018-09-12T03:00:28.549Z,99.90
2018-09-12T03:02:56.655Z,99.90
2018-09-12T03:05:24.830Z,99.90
2018-09-12T03:07:53.076Z,99.90
2018-09-12T03:10:21.189Z,99.90
2018-09-12T03:12:49.403Z,99.90
2018-09-12T03:15:17.570Z,99.90
2018-09-12T03:17:45.765Z,99.90
2018-09-12T03:20:13.950Z,99.90
2018-09-12T03:22:42.139Z,99.90
2018-09-12T03:25:10.330Z,99.90
2018-09-12T03:27:38.519Z,99.90
2018-09-12T03:30:07.179Z,99.90
2018-09-12T03:32:35.302Z,99.90
2018-09-12T03:35:03.493Z,99.90
2018-09-12T03:37:31.673Z,99.90
2018-09-12T03:39:59.842Z,99.90
2018-09-12T03:42:28.042Z,99.90
2018-09-12T03:44:56.225Z,99.90
2018-09-12T03:47:24.433Z,99.90
2018-09-12T03:49:52.599Z,99.90
2018-09-12T03:52:20.791Z,99.90
2018-09-12T03:54:48.975Z,99.90
2018-09-12T03:57:17.174Z,99.90
2018-09-12T03:59:45.462Z,99.90
2018-09-12T04:02:13.645Z,99.90
2018-09-12T04:04:41.821Z,99.90
2018-09-12T04:07:10.014Z,99.90
2018-09-12T04:09:38.198Z,99.90
2018-09-12T04:12:06.390Z,99.90
2018-09-12T04:14:34.579Z,99.90
2018-09-12T04:17:02.868Z,99.90
2018-09-12T04:19:30.941Z,99.90
2018-09-12T04:21:59.142Z,99.90
2018-09-12T04:24:27.392Z,99.90
2018-09-12T04:26:55.511Z,99.90
2018-09-12T04:29:23.690Z,99.90
2018-09-12T04:31:51.896Z,99.90
2018-09-12T04:34:20.075Z,99.90
2018-09-12T04:36:48.266Z,99.90
2018-09-12T04:39:16.445Z,99.90
2018-09-12T04:41:44.627Z,99.90
2018-09-12T04:44:12.827Z,99.90
2018-09-12T04:46:41.002Z,99.90
2018-09-12T04:49:09.202Z,99.90
2018-09-12T04:51:37.373Z,99.90
2018-09-12T04:54:05.571Z,99.90
2018-09-12T04:56:33.749Z,99.90
2018-09-12T04:59:01.938Z,99.90
2018-09-12T05:01:30.147Z,99.90
2018-09-12T05:03:58.323Z,99.90
2018-09-12T05:06:26.507Z,99.90
2018-09-12T05:08:54.694Z,99.90
2018-09-12T05:11:22.862Z,99.90
2018-09-12T05:13:51.546Z,99.90
2018-09-12T05:16:19.654Z,99.90
2018-09-12T05:18:47.858Z,99.90
2018-09-12T05:21:16.021Z,99.90
2018-09-12T05:23:45.150Z,99.90
2018-09-12T05:26:13.310Z,99.90
2018-09-12T05:28:41.510Z,99.90
2018-09-12T05:31:09.689Z,99.90
2018-09-12T05:33:37.883Z,99.90
2018-09-12T05:36:06.542Z,99.90
2018-09-12T05:38:34.668Z,99.90
2018-09-12T05:41:03.757Z,99.90
2018-09-12T05:43:31.965Z,99.90
2018-09-12T05:46:00.150Z,99.90
2018-09-12T05:48:28.338Z,99.90
2018-09-12T05:50:56.518Z,99.90
2018-09-12T05:53:24.702Z,99.90
2018-09-12T05:55:52.882Z,99.90
2018-09-12T05:58:21.130Z,99.90
2018-09-12T06:00:49.270Z,99.90
2018-09-12T06:03:17.450Z,99.90
2018-09-12T06:05:45.638Z,99.90
2018-09-12T06:08:13.828Z,99.90
2018-09-12T06:10:42.005Z,99.90
2018-09-12T06:13:10.213Z,99.90
2018-09-12T06:15:38.373Z,99.90
2018-09-12T06:18:06.586Z,99.90
2018-09-12T06:20:34.750Z,99.90
2018-09-12T06:23:02.954Z,99.90
2018-09-12T06:25:31.126Z,99.90
2018-09-12T06:27:59.337Z,99.90
2018-09-12T06:30:27.510Z,99.90
2018-09-12T06:32:55.702Z,99.90
2018-09-12T06:35:23.877Z,99.90
2018-09-12T06:37:52.097Z,99.90
2018-09-12T06:40:20.262Z,99.90
2018-09-12T06:42:48.446Z,99.90
2018-09-12T06:45:16.641Z,99.90
2018-09-12T06:47:44.820Z,99.90
2018-09-12T06:50:13.014Z,99.90
2018-09-12T06:52:41.207Z,99.90
2018-09-12T06:55:09.394Z,99.90
2018-09-12T06:57:37.571Z,99.90
2018-09-12T07:00:06.661Z,99.90
2018-09-12T07:02:34.762Z,99.90
2018-09-12T07:05:02.970Z,99.90
2018-09-12T07:07:31.162Z,99.90
2018-09-12T07:09:59.344Z,99.90
2018-09-12T07:12:27.500Z,99.90
2018-09-12T07:14:55.730Z,99.90
2018-09-12T07:17:23.873Z,99.90
2018-09-12T07:19:52.083Z,99.90
2018-09-12T07:22:20.249Z,99.90
2018-09-12T07:24:48.474Z,99.90
2018-09-12T07:27:16.629Z,99.90
2018-09-12T07:29:44.822Z,99.90
2018-09-12T07:32:13.080Z,99.90
2018-09-12T07:34:41.218Z,99.90
2018-09-12T07:37:09.380Z,99.90
2018-09-12T07:39:37.573Z,99.90
2018-09-12T07:42:05.758Z,99.90
2018-09-12T07:44:33.942Z,99.80
2018-09-12T07:47:02.133Z,99.90
2018-09-12T07:49:30.326Z,99.70
2018-09-12T07:51:58.502Z,99.50
2018-09-12T07:54:26.698Z,99.90
2018-09-12T07:56:54.802Z,99.50
2018-09-12T07:59:22.967Z,99.10
2018-09-12T08:01:51.145Z,99.50
2018-09-12T08:04:19.342Z,99.20
2018-09-12T08:06:47.594Z,99.30
2018-09-12T08:09:15.711Z,99.40
2018-09-12T08:11:44.116Z,99.10
2018-09-12T08:14:12.406Z,98.80
2018-09-12T08:16:40.575Z,99.40
2018-09-12T08:19:08.856Z,99.20
2018-09-12T08:21:36.962Z,98.80
2018-09-12T08:24:05.174Z,98.10
2018-09-12T08:26:33.414Z,98.40
2018-09-12T08:29:01.535Z,98.80
2018-09-12T08:31:29.709Z,98.20
2018-09-12T08:33:57.881Z,97.50
2018-09-12T08:36:26.131Z,97.90
2018-09-12T08:38:54.282Z,97.80
2018-09-12T08:41:22.467Z,96.90
2018-09-12T08:43:50.754Z,97.10
2018-09-12T08:46:18.921Z,96.70
2018-09-12T08:48:47.036Z,97.60
2018-09-12T08:51:15.194Z,96.90
2018-09-12T08:53:43.378Z,95.90
2018-09-12T08:56:11.582Z,96.60
2018-09-12T08:58:39.776Z,95.90
2018-09-12T09:01:07.946Z,95.40
2018-09-12T09:03:36.046Z,95.30
2018-09-12T09:06:04.306Z,94.80
2018-09-12T09:08:32.498Z,95.80
2018-09-12T09:11:00.699Z,95.10
2018-09-12T09:13:28.877Z,94.70
2018-09-12T09:15:57.143Z,94.40
2018-09-12T09:18:25.374Z,94.20
2018-09-12T09:20:53.553Z,92.40
2018-09-12T09:23:21.722Z,92.70
2018-09-12T09:25:49.939Z,93.80
2018-09-12T09:28:18.098Z,92.90
2018-09-12T09:30:46.278Z,92.90
2018-09-12T09:33:14.455Z,92.10
2018-09-12T09:35:42.764Z,91.70
2018-09-12T09:38:10.833Z,91.80
2018-09-12T09:40:39.854Z,91.10
2018-09-12T09:43:07.945Z,91.70
2018-09-12T09:45:36.109Z,91.00
2018-09-12T09:48:04.390Z,90.60
2018-09-12T09:50:32.491Z,89.00
2018-09-12T09:53:00.678Z,88.60
2018-09-12T09:55:28.807Z,88.80
2018-09-12T09:57:56.941Z,87.80
2018-09-12T10:00:30.522Z,86.00
2018-09-12T10:03:04.282Z,88.00
2018-09-12T10:05:37.741Z,87.10
2018-09-12T10:08:11.390Z,87.60
2018-09-12T10:10:39.535Z,82.80
2018-09-12T10:13:07.673Z,84.30
2018-09-12T10:15:35.858Z,85.00
2018-09-12T10:18:04.049Z,80.80
2018-09-12T10:20:32.246Z,80.70
2018-09-12T10:23:00.441Z,81.70
2018-09-12T10:25:28.643Z,80.40
2018-09-12T10:27:56.786Z,75.10
2018-09-12T10:30:24.982Z,76.20
2018-09-12T10:32:53.186Z,74.20
2018-09-12T10:35:21.667Z,73.00
2018-09-12T10:37:49.896Z,71.70
2018-09-12T10:40:18.098Z,71.90
2018-09-12T10:42:46.215Z,70.00
2018-09-12T10:45:14.414Z,69.20
2018-09-12T10:47:42.585Z,66.10
2018-09-12T10:50:10.795Z,66.10
2018-09-12T10:52:38.874Z,66.10
2018-09-12T10:55:07.077Z,63.50
2018-09-12T10:57:35.250Z,61.90
2018-09-12T11:00:03.446Z,61.50
2018-09-12T11:02:31.617Z,60.50
2018-09-12T11:04:59.810Z,60.60
2018-09-12T11:07:27.989Z,58.20
2018-09-12T11:09:56.171Z,58.80
2018-09-12T11:12:24.380Z,57.70
2018-09-12T11:14:52.542Z,56.80
2018-09-12T11:17:20.651Z,57.80
2018-09-12T11:19:48.822Z,55.90
2018-09-12T11:22:17.019Z,58.30
2018-09-12T11:24:45.198Z,54.90
2018-09-12T11:27:13.394Z,53.60
2018-09-12T11:29:41.581Z,53.50
2018-09-12T11:32:09.768Z,51.90
2018-09-12T11:34:37.966Z,52.30
2018-09-12T11:37:06.146Z,51.50
2018-09-12T11:39:34.323Z,51.60
2018-09-12T11:42:02.530Z,51.20
2018-09-12T11:44:30.696Z,49.90
2018-09-12T11:46:58.899Z,49.90
2018-09-12T11:49:27.161Z,49.60
2018-09-12T11:51:55.266Z,49.20
2018-09-12T11:54:23.445Z,48.90
2018-09-12T11:56:51.642Z,48.30
2018-09-12T11:59:19.819Z,50.50
2018-09-12T12:01:48.121Z,49.60
2018-09-12T12:04:16.294Z,50.20
2018-09-12T12:06:44.525Z,47.80
2018-09-12T12:09:12.686Z,46.20
2018-09-12T12:11:41.389Z,45.70
2018-09-12T12:14:09.670Z,46.20
2018-09-12T12:16:37.994Z,46.70
2018-09-12T12:19:06.087Z,45.60
2018-09-12T12:21:34.233Z,44.70
2018-09-12T12:24:02.402Z,45.70
2018-09-12T12:26:30.617Z,45.50
2018-09-12T12:28:58.770Z,44.00
2018-09-12T12:31:27.057Z,44.80
2018-09-12T12:33:55.126Z,43.80
2018-09-12T12:36:23.249Z,42.90
2018-09-12T12:38:51.420Z,42.20
2018-09-12T12:41:19.623Z,41.10
2018-09-12T12:43:47.778Z,41.10
2018-09-12T12:46:15.977Z,41.50
2018-09-12T12:48:44.205Z,40.00
2018-09-12T12:51:12.377Z,39.90
2018-09-12T12:53:40.530Z,39.50
2018-09-12T12:56:08.722Z,39.70
2018-09-12T12:58:36.914Z,39.40
2018-09-12T13:01:05.114Z,39.50
2018-09-12T13:03:33.287Z,37.30
2018-09-12T13:06:01.705Z,36.30
2018-09-12T13:08:29.874Z,37.20
2018-09-12T13:10:58.093Z,37.10
2018-09-12T13:13:26.228Z,38.50
2018-09-12T13:15:54.414Z,37.40
2018-09-12T13:18:22.638Z,36.50
2018-09-12T13:20:50.862Z,37.40
2018-09-12T13:23:19.038Z,36.90
2018-09-12T13:25:47.181Z,36.50
2018-09-12T13:28:15.364Z,37.10
2018-09-12T13:30:43.549Z,36.80
2018-09-12T13:33:11.758Z,36.00
2018-09-12T13:35:43.945Z,36.20
2018-09-12T13:38:12.106Z,35.90
2018-09-12T13:40:40.368Z,35.90
2018-09-12T13:43:08.553Z,36.40
2018-09-12T13:45:36.656Z,36.40
2018-09-12T13:48:05.341Z,35.30
2018-09-12T13:50:33.488Z,35.80
2018-09-12T13:53:01.744Z,35.70
2018-09-12T13:55:29.930Z,36.90
2018-09-12T13:57:58.114Z,35.70
2018-09-12T14:00:29.823Z,36.30
2018-09-12T14:02:58.559Z,35.90
2018-09-12T14:05:26.677Z,35.90
2018-09-12T14:07:54.881Z,36.00
2018-09-12T14:10:23.134Z,35.30
2018-09-12T14:12:51.237Z,34.60
2018-09-12T14:15:19.422Z,34.00
2018-09-12T14:17:47.702Z,33.90
2018-09-12T14:20:15.890Z,33.40
2018-09-12T14:22:44.026Z,33.90
2018-09-12T14:25:12.206Z,35.30
2018-09-12T14:27:40.309Z,35.50
2018-09-12T14:30:08.418Z,35.60
2018-09-12T14:32:36.621Z,34.20
2018-09-12T14:35:04.811Z,34.70
2018-09-12T14:37:33.012Z,34.10
2018-09-12T14:40:01.386Z,34.10
2018-09-12T14:42:29.578Z,33.90
2018-09-12T14:44:57.799Z,34.00
2018-09-12T14:47:25.990Z,34.30
2018-09-12T14:49:54.138Z,33.90
2018-09-12T14:52:22.546Z,34.30
2018-09-12T14:54:50.697Z,33.70
2018-09-12T14:57:18.915Z,34.10
2018-09-12T14:59:47.102Z,33.70
2018-09-12T15:02:15.276Z,33.70
2018-09-12T15:04:43.511Z,35.50
2018-09-12T15:07:11.634Z,35.00
2018-09-12T15:09:39.833Z,34.00
2018-09-12T15:12:08.023Z,34.00
2018-09-12T15:14:36.198Z,34.00
2018-09-12T15:17:04.473Z,34.00
2018-09-12T15:19:32.577Z,34.60
2018-09-12T15:22:00.838Z,34.20
2018-09-12T15:24:28.941Z,34.50
2018-09-12T15:26:57.164Z,36.10
2018-09-12T15:29:25.267Z,35.30
2018-09-12T15:31:53.479Z,34.50
2018-09-12T15:34:22.407Z,38.60
2018-09-12T15:36:51.426Z,35.00
2018-09-12T15:39:19.939Z,34.70
2018-09-12T15:41:48.156Z,35.40
2018-09-12T15:44:16.349Z,35.20
2018-09-12T15:46:44.494Z,35.40
2018-09-12T15:49:12.662Z,35.60
2018-09-12T15:51:40.855Z,36.50
2018-09-12T15:54:09.128Z,36.20
2018-09-12T15:56:37.452Z,36.10
2018-09-12T15:59:05.638Z,36.60
2018-09-12T16:01:33.939Z,37.60
2018-09-12T16:04:02.109Z,39.30
2018-09-12T16:06:30.299Z,37.40
2018-09-12T16:08:58.558Z,39.40
2018-09-12T16:11:26.753Z,37.50
2018-09-12T16:13:55.124Z,37.90
2018-09-12T16:16:23.346Z,38.60
2018-09-12T16:18:51.543Z,39.20
2018-09-12T16:21:19.625Z,37.70
2018-09-12T16:23:47.797Z,37.90
2018-09-12T16:26:15.982Z,38.60
2018-09-12T16:28:44.166Z,38.60
2018-09-12T16:31:12.350Z,39.40
2018-09-12T16:33:40.543Z,39.00
2018-09-12T16:36:08.718Z,39.60
2018-09-12T16:38:36.914Z,39.80
2018-09-12T16:41:06.134Z,40.10
2018-09-12T16:43:34.318Z,41.00
2018-09-12T16:46:02.513Z,40.70
2018-09-12T16:48:30.698Z,41.40
2018-09-12T16:50:59.158Z,42.30
2018-09-12T16:53:27.278Z,42.40
2018-09-12T16:55:56.042Z,42.70
2018-09-12T16:58:24.185Z,42.60
2018-09-12T17:00:52.331Z,44.00
2018-09-12T17:03:20.521Z,46.30
2018-09-12T17:05:48.706Z,46.70
2018-09-12T17:08:16.898Z,46.20
2018-09-12T17:10:45.078Z,46.00
2018-09-12T17:13:13.275Z,47.60
2018-09-12T17:15:41.357Z,48.10
2018-09-12T17:18:09.540Z,47.50
2018-09-12T17:20:37.734Z,48.20
2018-09-12T17:23:05.930Z,48.70
2018-09-12T17:25:34.094Z,50.60
2018-09-12T17:28:02.455Z,50.90
2018-09-12T17:30:30.574Z,51.70
2018-09-12T17:32:58.909Z,52.70
2018-09-12T17:35:27.373Z,52.10
2018-09-12T17:37:55.562Z,52.70
2018-09-12T17:40:23.770Z,53.30
2018-09-12T17:42:51.975Z,53.70
2018-09-12T17:45:20.114Z,54.20
2018-09-12T17:47:48.342Z,54.60
2018-09-12T17:50:16.518Z,54.70
2018-09-12T17:52:44.669Z,54.90
2018-09-12T17:55:12.866Z,54.70
2018-09-12T17:57:41.074Z,55.30
2018-09-12T18:00:09.229Z,55.70
2018-09-12T18:02:37.429Z,55.40
2018-09-12T18:05:05.653Z,55.70
2018-09-12T18:07:33.749Z,55.90
2018-09-12T18:10:01.847Z,55.70
2018-09-12T18:12:29.956Z,56.30
2018-09-12T18:14:58.154Z,56.70
2018-09-12T18:17:26.332Z,57.30
2018-09-12T18:19:54.517Z,57.80
2018-09-12T18:22:22.702Z,59.20
2018-09-12T18:24:50.991Z,59.60
2018-09-12T18:27:19.086Z,60.20
2018-09-12T18:29:47.310Z,60.00
2018-09-12T18:32:15.460Z,59.90
2018-09-12T18:34:43.641Z,60.30
2018-09-12T18:37:11.830Z,60.60
2018-09-12T18:39:40.018Z,61.10
2018-09-12T18:42:08.193Z,61.00
2018-09-12T18:44:36.312Z,60.40
2018-09-12T18:47:04.496Z,62.00
2018-09-12T18:49:32.674Z,60.90
2018-09-12T18:52:00.843Z,62.60
2018-09-12T18:54:29.030Z,62.90
2018-09-12T18:56:57.121Z,62.60
2018-09-12T18:59:25.305Z,63.20
2018-09-12T19:01:53.488Z,63.90
2018-09-12T19:04:21.581Z,64.50
2018-09-12T19:06:49.726Z,64.50
2018-09-12T19:09:17.845Z,65.30
2018-09-12T19:11:46.026Z,66.10
2018-09-12T19:14:14.230Z,66.40
2018-09-12T19:16:42.324Z,68.00
2018-09-12T19:19:10.496Z,68.50
2018-09-12T19:21:38.677Z,68.60
2018-09-12T19:24:06.870Z,68.90
2018-09-12T19:26:35.157Z,70.10
2018-09-12T19:29:03.249Z,70.00
2018-09-12T19:31:31.426Z,70.40
2018-09-12T19:33:59.703Z,70.90
2018-09-12T19:36:27.799Z,70.60
2018-09-12T19:38:56.023Z,71.50
2018-09-12T19:41:25.195Z,71.60
2018-09-12T19:43:53.381Z,71.70
2018-09-12T19:46:21.582Z,71.70
2018-09-12T19:48:49.766Z,72.00
2018-09-12T19:51:18.865Z,72.00
2018-09-12T19:53:47.057Z,72.20
2018-09-12T19:56:15.786Z,72.80
2018-09-12T19:58:44.673Z,72.70
2018-09-12T20:01:13.867Z,74.10
2018-09-12T20:03:42.088Z,74.00
2018-09-12T20:06:10.252Z,74.50
2018-09-12T20:08:38.434Z,74.30
2018-09-12T20:11:07.553Z,75.40
2018-09-12T20:13:35.719Z,76.30
2018-09-12T20:16:03.943Z,75.50
2018-09-12T20:18:32.093Z,75.70
2018-09-12T20:21:00.294Z,76.40
2018-09-12T20:23:28.499Z,77.60
2018-09-12T20:25:56.733Z,77.40
2018-09-12T20:28:24.838Z,78.80
2018-09-12T20:30:53.048Z,79.90
2018-09-12T20:33:21.250Z,80.20
2018-09-12T20:35:49.472Z,80.90
2018-09-12T20:38:17.626Z,81.30
2018-09-12T20:40:45.801Z,81.30
2018-09-12T20:43:13.963Z,82.10
2018-09-12T20:45:42.053Z,81.80
2018-09-12T20:48:10.231Z,82.10
2018-09-12T20:50:38.494Z,82.40
2018-09-12T20:53:06.518Z,82.70
2018-09-12T20:55:34.699Z,83.90
2018-09-12T20:58:02.839Z,84.50
2018-09-12T21:00:31.014Z,83.60
2018-09-12T21:02:59.157Z,85.70
2018-09-12T21:05:27.362Z,85.80
2018-09-12T21:07:55.534Z,86.50
2018-09-12T21:10:23.731Z,87.50
2018-09-12T21:12:51.918Z,88.90
2018-09-12T21:15:20.102Z,90.40
2018-09-12T21:17:48.302Z,91.20
2018-09-12T21:20:16.474Z,91.60
2018-09-12T21:22:44.653Z,92.10
2018-09-12T21:25:12.846Z,92.40
2018-09-12T21:27:41.145Z,92.80
2018-09-12T21:30:09.332Z,93.20
2018-09-12T21:32:37.517Z,93.60
2018-09-12T21:35:05.701Z,94.00
2018-09-12T21:37:33.882Z,94.20
2018-09-12T21:40:02.302Z,94.40
2018-09-12T21:42:30.786Z,94.50
2018-09-12T21:44:59.016Z,94.80
2018-09-12T21:47:27.232Z,95.10
2018-09-12T21:49:55.341Z,95.10
2018-09-12T21:52:23.850Z,95.40
2018-09-12T21:54:52.009Z,95.50
2018-09-12T21:57:20.210Z,95.60
2018-09-12T21:59:48.394Z,95.80
2018-09-12T22:02:16.578Z,95.80
2018-09-12T22:04:44.750Z,95.90
2018-09-12T22:07:12.986Z,96.00
2018-09-12T22:09:41.137Z,96.20
2018-09-12T22:12:09.350Z,96.30
2018-09-12T22:14:37.514Z,96.50
2018-09-12T22:17:05.726Z,96.70
2018-09-12T22:19:34.302Z,96.80
2018-09-12T22:22:03.489Z,97.20
2018-09-12T22:24:31.691Z,97.00
2018-09-12T22:26:59.894Z,97.10
2018-09-12T22:29:28.456Z,97.20
2018-09-12T22:31:56.569Z,97.30
2018-09-12T22:34:24.753Z,97.50
2018-09-12T22:36:52.994Z,97.60
2018-09-12T22:39:21.117Z,97.70
2018-09-12T22:41:49.314Z,97.90
2018-09-12T22:44:17.490Z,97.90
2018-09-12T22:46:45.687Z,98.10
2018-09-12T22:49:13.880Z,98.20
2018-09-12T22:51:42.074Z,98.20
2018-09-12T22:54:10.245Z,98.20
2018-09-12T22:56:38.438Z,98.40
2018-09-12T22:59:06.620Z,98.20
2018-09-12T23:01:34.823Z,98.30
2018-09-12T23:04:03.002Z,98.20
2018-09-12T23:06:31.185Z,98.30
2018-09-12T23:08:59.365Z,98.40
2018-09-12T23:11:27.602Z,98.40
2018-09-12T23:13:55.736Z,98.50
2018-09-12T23:16:23.948Z,98.60
2018-09-12T23:18:52.110Z,98.60
2018-09-12T23:21:20.305Z,98.60
2018-09-12T23:23:48.486Z,98.70
2018-09-12T23:26:17.602Z,98.60
2018-09-12T23:28:45.774Z,98.60
2018-09-12T23:31:13.962Z,98.50
2018-09-12T23:33:42.134Z,98.60
2018-09-12T23:36:10.234Z,98.70
2018-09-12T23:38:38.409Z,98.70
2018-09-12T23:41:07.546Z,98.60
2018-09-12T23:43:35.705Z,98.60
2018-09-12T23:46:03.921Z,98.70
2018-09-12T23:48:32.075Z,98.60
2018-09-12T23:51:00.345Z,98.60
2018-09-12T23:53:28.552Z,98.50
2018-09-12T23:55:56.654Z,98.60
2018-09-12T23:58:24.817Z,98.70
